sensor_id;sensor_type;location;lat;lon;timestamp;pressure;altitude;pressure_sealevel;temperature;humidity
10310;BME280;5200;43.236;27.986;2023-04-05T00:01:15;99097.72;;;1.21;100.00
10310;BME280;5200;43.236;27.986;2023-04-05T00:03:44;99090.84;;;1.20;100.00
10310;BME280;5200;43.236;27.986;2023-04-05T00:06:11;99139.81;;;1.37;100.00
10310;BME280;5200;43.236;27.986;2023-04-05T00:08:42;99144.56;;;1.31;100.00
10310;BME280;5200;43.236;27.986;2023-04-05T00:11:14;99117.94;;;1.29;100.00
10310;BME280;5200;43.236;27.986;2023-04-05T00:13:41;99135.16;;;1.30;100.00
10310;BME280;5200;43.236;27.986;2023-04-05T00:16:08;99123.81;;;1.18;100.00
10310;BME280;5200;43.236;27.986;2023-04-05T00:18:34;99146.22;;;1.32;100.00
10310;BME280;5200;43.236;27.986;2023-04-05T00:21:03;99143.31;;;1.23;100.00
10310;BME280;5200;43.236;27.986;2023-04-05T00:23:30;99153.28;;;1.30;100.00
10310;BME280;5200;43.236;27.986;2023-04-05T00:26:05;99149.75;;;1.31;100.00
10310;BME280;5200;43.236;27.986;2023-04-05T00:28:33;99138.53;;;1.17;100.00
10310;BME280;5200;43.236;27.986;2023-04-05T00:31:00;99162.19;;;1.25;100.00
10310;BME280;5200;43.236;27.986;2023-04-05T00:33:27;99160.34;;;1.27;100.00
10310;BME280;5200;43.236;27.986;2023-04-05T00:35:53;99157.00;;;1.25;100.00
10310;BME280;5200;43.236;27.986;2023-04-05T00:38:20;99154.63;;;1.22;100.00
10310;BME280;5200;43.236;27.986;2023-04-05T00:40:47;99165.38;;;1.16;100.00
10310;BME280;5200;43.236;27.986;2023-04-05T00:43:15;99166.69;;;1.09;100.00
10310;BME280;5200;43.236;27.986;2023-04-05T00:45:42;99159.13;;;1.06;100.00
10310;BME280;5200;43.236;27.986;2023-04-05T00:48:09;99151.94;;;0.97;100.00
10310;BME280;5200;43.236;27.986;2023-04-05T00:50:36;99156.91;;;1.00;100.00
10310;BME280;5200;43.236;27.986;2023-04-05T00:53:03;99156.91;;;1.00;100.00
10310;BME280;5200;43.236;27.986;2023-04-05T00:55:31;99167.06;;;1.03;100.00
10310;BME280;5200;43.236;27.986;2023-04-05T00:57:58;99172.25;;;1.03;100.00
10310;BME280;5200;43.236;27.986;2023-04-05T01:00:26;99173.50;;;0.97;100.00
10310;BME280;5200;43.236;27.986;2023-04-05T01:02:57;99175.34;;;0.95;100.00
10310;BME280;5200;43.236;27.986;2023-04-05T01:05:34;99177.84;;;0.97;100.00
10310;BME280;5200;43.236;27.986;2023-04-05T01:08:10;99200.31;;;0.96;100.00
10310;BME280;5200;43.236;27.986;2023-04-05T01:10:43;99176.38;;;0.93;100.00
10310;BME280;5200;43.236;27.986;2023-04-05T01:13:12;99176.56;;;0.90;100.00
10310;BME280;5200;43.236;27.986;2023-04-05T01:15:42;99191.38;;;0.88;100.00
10310;BME280;5200;43.236;27.986;2023-04-05T01:18:09;99171.97;;;0.80;100.00
10310;BME280;5200;43.236;27.986;2023-04-05T01:20:44;99181.38;;;0.81;100.00
10310;BME280;5200;43.236;27.986;2023-04-05T01:23:20;99184.63;;;0.85;100.00
10310;BME280;5200;43.236;27.986;2023-04-05T01:26:27;99190.44;;;0.89;100.00
10310;BME280;5200;43.236;27.986;2023-04-05T01:29:32;99170.81;;;0.84;100.00
10310;BME280;5200;43.236;27.986;2023-04-05T01:32:06;99191.38;;;0.88;100.00
10310;BME280;5200;43.236;27.986;2023-04-05T01:34:42;99175.84;;;0.88;100.00
10310;BME280;5200;43.236;27.986;2023-04-05T01:37:15;99173.41;;;0.84;100.00
10310;BME280;5200;43.236;27.986;2023-04-05T01:39:44;99205.34;;;0.85;100.00
10310;BME280;5200;43.236;27.986;2023-04-05T01:42:12;99194.13;;;0.84;100.00
10310;BME280;5200;43.236;27.986;2023-04-05T01:44:41;99221.16;;;0.80;100.00
10310;BME280;5200;43.236;27.986;2023-04-05T01:47:07;99203.88;;;0.81;100.00
10310;BME280;5200;43.236;27.986;2023-04-05T01:49:34;99206.53;;;0.79;100.00
10310;BME280;5200;43.236;27.986;2023-04-05T01:52:01;99212.84;;;0.75;100.00
10310;BME280;5200;43.236;27.986;2023-04-05T01:54:28;99188.97;;;0.70;100.00
10310;BME280;5200;43.236;27.986;2023-04-05T01:56:54;99196.94;;;0.67;100.00
10310;BME280;5200;43.236;27.986;2023-04-05T01:59:21;99228.03;;;0.67;100.00
10310;BME280;5200;43.236;27.986;2023-04-05T02:01:50;99213.44;;;0.66;100.00
10310;BME280;5200;43.236;27.986;2023-04-05T02:04:17;99206.38;;;0.68;100.00
10310;BME280;5200;43.236;27.986;2023-04-05T02:06:43;99196.94;;;0.67;100.00
10310;BME280;5200;43.236;27.986;2023-04-05T02:09:10;99219.16;;;0.71;100.00
10310;BME280;5200;43.236;27.986;2023-04-05T02:11:38;99194.91;;;0.72;100.00
10310;BME280;5200;43.236;27.986;2023-04-05T02:14:04;99163.28;;;0.67;100.00
10310;BME280;5200;43.236;27.986;2023-04-05T02:16:31;99211.25;;;0.73;100.00
10310;BME280;5200;43.236;27.986;2023-04-05T02:18:59;99203.50;;;0.73;100.00
10310;BME280;5200;43.236;27.986;2023-04-05T02:21:26;99211.91;;;0.76;100.00
10310;BME280;5200;43.236;27.986;2023-04-05T02:23:54;99217.94;;;0.77;100.00
10310;BME280;5200;43.236;27.986;2023-04-05T02:26:21;99222.38;;;0.75;100.00
10310;BME280;5200;43.236;27.986;2023-04-05T02:28:48;99203.41;;;0.74;100.00
10310;BME280;5200;43.236;27.986;2023-04-05T02:31:14;99221.75;;;0.71;100.00
10310;BME280;5200;43.236;27.986;2023-04-05T02:33:41;99231.16;;;0.72;100.00
10310;BME280;5200;43.236;27.986;2023-04-05T02:36:11;99225.16;;;0.72;100.00
10310;BME280;5200;43.236;27.986;2023-04-05T02:38:38;99221.53;;;0.74;100.00
10310;BME280;5200;43.236;27.986;2023-04-05T02:41:07;99234.69;;;0.71;100.00
10310;BME280;5200;43.236;27.986;2023-04-05T02:43:34;99231.91;;;0.74;100.00
10310;BME280;5200;43.236;27.986;2023-04-05T02:46:01;99238.63;;;0.77;100.00
10310;BME280;5200;43.236;27.986;2023-04-05T02:48:28;99243.19;;;0.73;100.00
10310;BME280;5200;43.236;27.986;2023-04-05T02:50:55;99256.13;;;0.73;100.00
10310;BME280;5200;43.236;27.986;2023-04-05T02:53:23;99228.97;;;0.66;100.00
10310;BME280;5200;43.236;27.986;2023-04-05T02:55:53;99251.13;;;0.70;100.00
10310;BME280;5200;43.236;27.986;2023-04-05T02:58:21;99224.97;;;0.60;100.00
10310;BME280;5200;43.236;27.986;2023-04-05T03:00:48;99254.56;;;0.71;100.00
10310;BME280;5200;43.236;27.986;2023-04-05T03:03:17;99203.97;;;0.65;100.00
10310;BME280;5200;43.236;27.986;2023-04-05T03:05:44;99237.34;;;0.70;100.00
10310;BME280;5200;43.236;27.986;2023-04-05T03:08:13;99237.09;;;0.60;100.00
10310;BME280;5200;43.236;27.986;2023-04-05T03:10:44;99251.31;;;0.67;100.00
10310;BME280;5200;43.236;27.986;2023-04-05T03:13:11;99222.94;;;0.51;100.00
10310;BME280;5200;43.236;27.986;2023-04-05T03:15:39;99239.59;;;0.61;100.00
10310;BME280;5200;43.236;27.986;2023-04-05T03:18:06;99239.69;;;0.60;100.00
10310;BME280;5200;43.236;27.986;2023-04-05T03:20:34;99246.22;;;0.66;100.00
10310;BME280;5200;43.236;27.986;2023-04-05T03:23:05;99233.56;;;0.61;100.00
10310;BME280;5200;43.236;27.986;2023-04-05T03:25:33;99250.78;;;0.62;100.00
10310;BME280;5200;43.236;27.986;2023-04-05T03:28:04;99248.16;;;0.76;100.00
10310;BME280;5200;43.236;27.986;2023-04-05T03:30:31;99230.03;;;0.76;100.00
10310;BME280;5200;43.236;27.986;2023-04-05T03:32:58;99275.34;;;0.83;100.00
10310;BME280;5200;43.236;27.986;2023-04-05T03:35:26;99249.94;;;0.76;100.00
10310;BME280;5200;43.236;27.986;2023-04-05T03:37:54;99245.56;;;0.91;100.00
10310;BME280;5200;43.236;27.986;2023-04-05T03:40:21;99255.19;;;0.89;100.00
10310;BME280;5200;43.236;27.986;2023-04-05T03:42:48;99262.38;;;0.98;100.00
10310;BME280;5200;43.236;27.986;2023-04-05T03:45:16;99267.75;;;0.95;100.00
10310;BME280;5200;43.236;27.986;2023-04-05T03:47:43;99241.03;;;0.94;100.00
10310;BME280;5200;43.236;27.986;2023-04-05T03:50:10;99283.94;;;0.98;100.00
10310;BME280;5200;43.236;27.986;2023-04-05T03:52:37;99267.56;;;0.98;100.00
10310;BME280;5200;43.236;27.986;2023-04-05T03:55:04;99266.81;;;0.96;100.00
10310;BME280;5200;43.236;27.986;2023-04-05T03:57:31;99265.06;;;0.96;100.00
10310;BME280;5200;43.236;27.986;2023-04-05T03:59:58;99274.78;;;0.93;100.00
10310;BME280;5200;43.236;27.986;2023-04-05T04:02:26;99270.91;;;0.86;100.00
10310;BME280;5200;43.236;27.986;2023-04-05T04:04:53;99298.09;;;0.93;100.00
10310;BME280;5200;43.236;27.986;2023-04-05T04:07:20;99294.03;;;0.89;100.00
10310;BME280;5200;43.236;27.986;2023-04-05T04:09:46;99261.84;;;0.93;100.00
10310;BME280;5200;43.236;27.986;2023-04-05T04:12:13;99288.09;;;1.01;100.00
10310;BME280;5200;43.236;27.986;2023-04-05T04:14:40;99319.19;;;1.01;100.00
10310;BME280;5200;43.236;27.986;2023-04-05T04:17:07;99295.16;;;0.99;100.00
10310;BME280;5200;43.236;27.986;2023-04-05T04:19:35;99279.03;;;0.94;100.00
10310;BME280;5200;43.236;27.986;2023-04-05T04:22:01;99304.03;;;0.95;100.00
10310;BME280;5200;43.236;27.986;2023-04-05T04:24:28;99234.22;;;0.65;100.00
10310;BME280;5200;43.236;27.986;2023-04-05T04:26:57;99305.88;;;0.93;100.00
10310;BME280;5200;43.236;27.986;2023-04-05T04:29:23;99326.03;;;1.02;100.00
10310;BME280;5200;43.236;27.986;2023-04-05T04:31:55;99318.16;;;1.03;100.00
10310;BME280;5200;43.236;27.986;2023-04-05T04:34:22;99283.88;;;0.86;100.00
10310;BME280;5200;43.236;27.986;2023-04-05T04:36:51;99327.59;;;1.04;100.00
10310;BME280;5200;43.236;27.986;2023-04-05T04:39:26;99301.41;;;1.09;100.00
10310;BME280;5200;43.236;27.986;2023-04-05T04:41:56;99306.78;;;0.92;100.00
10310;BME280;5200;43.236;27.986;2023-04-05T04:44:23;99312.16;;;1.03;100.00
10310;BME280;5200;43.236;27.986;2023-04-05T04:46:55;99318.72;;;1.09;100.00
10310;BME280;5200;43.236;27.986;2023-04-05T04:49:22;99320.09;;;1.14;100.00
10310;BME280;5200;43.236;27.986;2023-04-05T04:51:50;99296.72;;;1.01;100.00
10310;BME280;5200;43.236;27.986;2023-04-05T04:54:17;99302.72;;;1.02;100.00
10310;BME280;5200;43.236;27.986;2023-04-05T04:56:46;99300.50;;;0.96;100.00
10310;BME280;5200;43.236;27.986;2023-04-05T04:59:13;99301.44;;;0.95;100.00
10310;BME280;5200;43.236;27.986;2023-04-05T05:01:44;99297.00;;;0.97;100.00
10310;BME280;5200;43.236;27.986;2023-04-05T05:04:10;99297.00;;;0.97;100.00
10310;BME280;5200;43.236;27.986;2023-04-05T05:06:37;99341.84;;;1.12;100.00
10310;BME280;5200;43.236;27.986;2023-04-05T05:09:05;99342.69;;;1.12;100.00
10310;BME280;5200;43.236;27.986;2023-04-05T05:11:32;99325.03;;;1.04;100.00
10310;BME280;5200;43.236;27.986;2023-04-05T05:13:59;99342.88;;;1.09;100.00
10310;BME280;5200;43.236;27.986;2023-04-05T05:16:26;99298.13;;;0.78;100.00
10310;BME280;5200;43.236;27.986;2023-04-05T05:18:53;99336.59;;;0.99;100.00
10310;BME280;5200;43.236;27.986;2023-04-05T05:21:20;99302.28;;;0.81;100.00
10310;BME280;5200;43.236;27.986;2023-04-05T05:23:47;99340.09;;;0.98;100.00
10310;BME280;5200;43.236;27.986;2023-04-05T05:26:16;99334.91;;;0.98;100.00
10310;BME280;5200;43.236;27.986;2023-04-05T05:28:43;99331.50;;;0.97;100.00
10310;BME280;5200;43.236;27.986;2023-04-05T05:31:10;99306.78;;;0.77;100.00
10310;BME280;5200;43.236;27.986;2023-04-05T05:33:38;99315.28;;;0.94;100.00
10310;BME280;5200;43.236;27.986;2023-04-05T05:36:05;99315.56;;;0.89;100.00
10310;BME280;5200;43.236;27.986;2023-04-05T05:38:33;99322.91;;;0.97;100.00
10310;BME280;5200;43.236;27.986;2023-04-05T05:41:00;99309.22;;;0.80;100.00
10310;BME280;5200;43.236;27.986;2023-04-05T05:43:28;99325.50;;;0.97;100.00
10310;BME280;5200;43.236;27.986;2023-04-05T05:45:56;99295.25;;;0.83;100.00
10310;BME280;5200;43.236;27.986;2023-04-05T05:48:25;99291.09;;;0.80;100.00
10310;BME280;5200;43.236;27.986;2023-04-05T05:50:52;99331.41;;;0.99;100.00
10310;BME280;5200;43.236;27.986;2023-04-05T05:53:19;99314.56;;;0.92;100.00
10310;BME280;5200;43.236;27.986;2023-04-05T05:55:46;99311.97;;;1.06;100.00
10310;BME280;5200;43.236;27.986;2023-04-05T05:58:12;99325.09;;;1.03;100.00
10310;BME280;5200;43.236;27.986;2023-04-05T06:00:41;99323.34;;;1.03;100.00
10310;BME280;5200;43.236;27.986;2023-04-05T06:03:08;99332.25;;;0.99;100.00
10310;BME280;5200;43.236;27.986;2023-04-05T06:05:35;99336.13;;;1.07;100.00
10310;BME280;5200;43.236;27.986;2023-04-05T06:08:02;99338.59;;;1.08;100.00
10310;BME280;5200;43.236;27.986;2023-04-05T06:10:29;99325.66;;;1.08;100.00
10310;BME280;5200;43.236;27.986;2023-04-05T06:12:56;99334.16;;;1.10;100.00
10310;BME280;5200;43.236;27.986;2023-04-05T06:15:23;99354.72;;;1.13;100.00
10310;BME280;5200;43.236;27.986;2023-04-05T06:17:51;99357.59;;;1.09;100.00
10310;BME280;5200;43.236;27.986;2023-04-05T06:20:18;99369.31;;;1.14;100.00
10310;BME280;5200;43.236;27.986;2023-04-05T06:22:44;99400.97;;;1.19;100.00
10310;BME280;5200;43.236;27.986;2023-04-05T06:25:11;99402.81;;;1.17;100.00
10310;BME280;5200;43.236;27.986;2023-04-05T06:27:38;99417.19;;;1.23;100.00
10310;BME280;5200;43.236;27.986;2023-04-05T06:30:06;99398.22;;;1.22;100.00
10310;BME280;5200;43.236;27.986;2023-04-05T06:32:33;99439.09;;;1.32;100.00
10310;BME280;5200;43.236;27.986;2023-04-05T06:35:02;99456.13;;;1.36;100.00
10310;BME280;5200;43.236;27.986;2023-04-05T06:37:29;99454.09;;;1.41;100.00
10310;BME280;5200;43.236;27.986;2023-04-05T06:39:55;99442.81;;;1.42;100.00
10310;BME280;5200;43.236;27.986;2023-04-05T06:42:22;99478.34;;;1.54;100.00
10310;BME280;5200;43.236;27.986;2023-04-05T06:44:49;99486.31;;;1.65;100.00
10310;BME280;5200;43.236;27.986;2023-04-05T06:47:16;99483.06;;;1.76;100.00
10310;BME280;5200;43.236;27.986;2023-04-05T06:49:43;99488.91;;;1.80;100.00
10310;BME280;5200;43.236;27.986;2023-04-05T06:52:11;99471.50;;;1.82;100.00
10310;BME280;5200;43.236;27.986;2023-04-05T06:54:37;99501.09;;;1.92;100.00
10310;BME280;5200;43.236;27.986;2023-04-05T06:57:04;99502.09;;;2.04;100.00
10310;BME280;5200;43.236;27.986;2023-04-05T06:59:31;99489.66;;;2.09;100.00
10310;BME280;5200;43.236;27.986;2023-04-05T07:01:58;99487.00;;;2.10;100.00
10310;BME280;5200;43.236;27.986;2023-04-05T07:04:25;99485.47;;;2.21;100.00
10310;BME280;5200;43.236;27.986;2023-04-05T07:06:53;99504.91;;;2.28;100.00
10310;BME280;5200;43.236;27.986;2023-04-05T07:09:22;99487.31;;;2.33;100.00
10310;BME280;5200;43.236;27.986;2023-04-05T07:11:49;99514.53;;;2.40;100.00
10310;BME280;5200;43.236;27.986;2023-04-05T07:14:16;99504.78;;;2.44;100.00
10310;BME280;5200;43.236;27.986;2023-04-05T07:16:43;99498.75;;;2.43;100.00
10310;BME280;5200;43.236;27.986;2023-04-05T07:19:10;99517.25;;;2.51;100.00
10310;BME280;5200;43.236;27.986;2023-04-05T07:21:37;99508.34;;;2.56;100.00
10310;BME280;5200;43.236;27.986;2023-04-05T07:24:05;99521.50;;;2.67;100.00
10310;BME280;5200;43.236;27.986;2023-04-05T07:26:33;99517.06;;;2.82;100.00
10310;BME280;5200;43.236;27.986;2023-04-05T07:29:01;99524.38;;;2.89;100.00
10310;BME280;5200;43.236;27.986;2023-04-05T07:31:29;99531.34;;;3.02;100.00
10310;BME280;5200;43.236;27.986;2023-04-05T07:33:56;99545.09;;;3.04;100.00
10310;BME280;5200;43.236;27.986;2023-04-05T07:36:23;99535.81;;;3.00;100.00
10310;BME280;5200;43.236;27.986;2023-04-05T07:38:52;99542.06;;;3.10;100.00
10310;BME280;5200;43.236;27.986;2023-04-05T07:41:19;99550.94;;;3.20;100.00
10310;BME280;5200;43.236;27.986;2023-04-05T07:43:49;99547.59;;;3.31;100.00
10310;BME280;5200;43.236;27.986;2023-04-05T07:46:16;99548.03;;;3.37;100.00
10310;BME280;5200;43.236;27.986;2023-04-05T07:48:45;99552.41;;;3.50;100.00
10310;BME280;5200;43.236;27.986;2023-04-05T07:51:12;99479.19;;;3.17;100.00
10310;BME280;5200;43.236;27.986;2023-04-05T07:53:38;99554.25;;;3.73;100.00
10310;BME280;5200;43.236;27.986;2023-04-05T07:56:06;99541.06;;;3.76;100.00
10310;BME280;5200;43.236;27.986;2023-04-05T07:58:34;99548.94;;;3.88;100.00
10310;BME280;5200;43.236;27.986;2023-04-05T08:01:08;99546.44;;;3.99;100.00
10310;BME280;5200;43.236;27.986;2023-04-05T08:03:36;99544.41;;;4.15;100.00
10310;BME280;5200;43.236;27.986;2023-04-05T08:06:11;99538.34;;;4.28;100.00
10310;BME280;5200;43.236;27.986;2023-04-05T08:08:38;99540.13;;;4.51;100.00
10310;BME280;5200;43.236;27.986;2023-04-05T08:11:05;99540.69;;;4.68;100.00
10310;BME280;5200;43.236;27.986;2023-04-05T08:13:32;99526.06;;;4.78;100.00
10310;BME280;5200;43.236;27.986;2023-04-05T08:16:00;99547.16;;;4.86;100.00
10310;BME280;5200;43.236;27.986;2023-04-05T08:18:28;99537.06;;;4.81;100.00
10310;BME280;5200;43.236;27.986;2023-04-05T08:20:55;99539.13;;;4.89;100.00
10310;BME280;5200;43.236;27.986;2023-04-05T08:23:23;99533.06;;;4.88;100.00
10310;BME280;5200;43.236;27.986;2023-04-05T08:25:49;99548.88;;;4.98;100.00
10310;BME280;5200;43.236;27.986;2023-04-05T08:28:17;99546.78;;;5.03;100.00
10310;BME280;5200;43.236;27.986;2023-04-05T08:30:43;99556.97;;;5.06;100.00
10310;BME280;5200;43.236;27.986;2023-04-05T08:33:11;99545.03;;;5.15;100.00
10310;BME280;5200;43.236;27.986;2023-04-05T08:35:39;99563.69;;;5.33;100.00
10310;BME280;5200;43.236;27.986;2023-04-05T08:38:07;99571.44;;;5.57;100.00
10310;BME280;5200;43.236;27.986;2023-04-05T08:40:39;99571.22;;;5.83;100.00
10310;BME280;5200;43.236;27.986;2023-04-05T08:43:09;99578.25;;;5.93;100.00
10310;BME280;5200;43.236;27.986;2023-04-05T08:45:42;99577.81;;;6.00;100.00
10310;BME280;5200;43.236;27.986;2023-04-05T08:48:10;99581.25;;;6.00;100.00
10310;BME280;5200;43.236;27.986;2023-04-05T08:50:36;99568.06;;;6.13;100.00
10310;BME280;5200;43.236;27.986;2023-04-05T08:53:06;99586.31;;;6.02;100.00
10310;BME280;5200;43.236;27.986;2023-04-05T08:55:35;99578.03;;;5.97;100.00
10310;BME280;5200;43.236;27.986;2023-04-05T08:58:06;99582.63;;;5.93;100.00
10310;BME280;5200;43.236;27.986;2023-04-05T09:00:35;99580.72;;;5.72;100.00
10310;BME280;5200;43.236;27.986;2023-04-05T09:03:02;99589.97;;;5.77;100.00
10310;BME280;5200;43.236;27.986;2023-04-05T09:05:30;99609.22;;;5.87;100.00
10310;BME280;5200;43.236;27.986;2023-04-05T09:07:58;99602.66;;;5.92;100.00
10310;BME280;5200;43.236;27.986;2023-04-05T09:10:26;99597.31;;;5.83;100.00
10310;BME280;5200;43.236;27.986;2023-04-05T09:12:55;99584.28;;;5.71;100.00
10310;BME280;5200;43.236;27.986;2023-04-05T09:15:23;99587.97;;;5.91;100.00
10310;BME280;5200;43.236;27.986;2023-04-05T09:17:53;99589.78;;;6.02;100.00
10310;BME280;5200;43.236;27.986;2023-04-05T09:20:20;99588.69;;;6.16;100.00
10310;BME280;5200;43.236;27.986;2023-04-05T09:22:46;99602.84;;;6.36;100.00
10310;BME280;5200;43.236;27.986;2023-04-05T09:25:34;99591.03;;;6.53;100.00
10310;BME280;5200;43.236;27.986;2023-04-05T09:28:03;99598.59;;;6.67;100.00
10310;BME280;5200;43.236;27.986;2023-04-05T09:30:30;99604.53;;;6.81;100.00
10310;BME280;5200;43.236;27.986;2023-04-05T09:32:58;99620.47;;;7.10;100.00
10310;BME280;5200;43.236;27.986;2023-04-05T09:35:26;99602.56;;;7.47;100.00
10310;BME280;5200;43.236;27.986;2023-04-05T09:37:54;99589.03;;;7.63;100.00
10310;BME280;5200;43.236;27.986;2023-04-05T09:40:22;99588.81;;;7.76;100.00
10310;BME280;5200;43.236;27.986;2023-04-05T09:42:50;99606.75;;;8.01;100.00
10310;BME280;5200;43.236;27.986;2023-04-05T09:45:18;99595.56;;;8.30;100.00
10310;BME280;5200;43.236;27.986;2023-04-05T09:47:53;99602.56;;;8.30;100.00
10310;BME280;5200;43.236;27.986;2023-04-05T09:50:20;99601.44;;;8.22;100.00
10310;BME280;5200;43.236;27.986;2023-04-05T09:52:47;99602.38;;;8.12;100.00
10310;BME280;5200;43.236;27.986;2023-04-05T09:55:25;99604.13;;;8.01;100.00
10310;BME280;5200;43.236;27.986;2023-04-05T09:57:54;99606.19;;;7.98;100.00
10310;BME280;5200;43.236;27.986;2023-04-05T10:00:21;99613.81;;;7.80;100.00
10310;BME280;5200;43.236;27.986;2023-04-05T10:02:52;99606.78;;;7.59;100.00
10310;BME280;5200;43.236;27.986;2023-04-05T10:05:23;99621.94;;;7.56;100.00
10310;BME280;5200;43.236;27.986;2023-04-05T10:07:50;99615.81;;;7.46;100.00
10310;BME280;5200;43.236;27.986;2023-04-05T10:10:17;99613.25;;;7.34;100.00
10310;BME280;5200;43.236;27.986;2023-04-05T10:12:45;99617.94;;;7.40;100.00
10310;BME280;5200;43.236;27.986;2023-04-05T10:15:15;99605.00;;;7.39;100.00
10310;BME280;5200;43.236;27.986;2023-04-05T10:17:47;99618.28;;;7.47;100.00
10310;BME280;5200;43.236;27.986;2023-04-05T10:20:17;99629.13;;;7.63;100.00
10310;BME280;5200;43.236;27.986;2023-04-05T10:22:56;99617.91;;;7.73;100.00
10310;BME280;5200;43.236;27.986;2023-04-05T10:25:30;99619.09;;;7.90;100.00
10310;BME280;5200;43.236;27.986;2023-04-05T10:28:03;99621.44;;;8.14;100.00
10310;BME280;5200;43.236;27.986;2023-04-05T10:30:34;99598.97;;;8.21;100.00
10310;BME280;5200;43.236;27.986;2023-04-05T10:33:10;99612.41;;;8.37;100.00
10310;BME280;5200;43.236;27.986;2023-04-05T10:35:49;99625.19;;;8.52;100.00
10310;BME280;5200;43.236;27.986;2023-04-05T10:38:22;99620.22;;;8.58;100.00
10310;BME280;5200;43.236;27.986;2023-04-05T10:40:53;99630.44;;;8.61;100.00
10310;BME280;5200;43.236;27.986;2023-04-05T10:43:22;99636.25;;;8.65;100.00
10310;BME280;5200;43.236;27.986;2023-04-05T10:45:53;99634.75;;;8.72;100.00
10310;BME280;5200;43.236;27.986;2023-04-05T10:48:31;99647.59;;;8.75;100.00
10310;BME280;5200;43.236;27.986;2023-04-05T10:51:00;99641.81;;;8.81;100.00
10310;BME280;5200;43.236;27.986;2023-04-05T10:53:29;99643.88;;;8.78;100.00
10310;BME280;5200;43.236;27.986;2023-04-05T10:55:57;99640.13;;;8.61;100.00
10310;BME280;5200;43.236;27.986;2023-04-05T10:58:25;99638.56;;;8.58;100.00
10310;BME280;5200;43.236;27.986;2023-04-05T11:00:54;99639.09;;;8.42;100.00
10310;BME280;5200;43.236;27.986;2023-04-05T11:03:41;99631.38;;;8.20;100.00
10310;BME280;5200;43.236;27.986;2023-04-05T11:06:21;99640.91;;;8.21;100.00
10310;BME280;5200;43.236;27.986;2023-04-05T11:08:51;99642.13;;;8.17;100.00
10310;BME280;5200;43.236;27.986;2023-04-05T11:11:21;99639.50;;;8.17;100.00
10310;BME280;5200;43.236;27.986;2023-04-05T11:13:50;99634.78;;;8.11;100.00
10310;BME280;5200;43.236;27.986;2023-04-05T11:16:18;99634.97;;;8.19;100.00
10310;BME280;5200;43.236;27.986;2023-04-05T11:18:46;99634.72;;;8.32;100.00
10310;BME280;5200;43.236;27.986;2023-04-05T11:21:21;99631.66;;;8.48;100.00
10310;BME280;5200;43.236;27.986;2023-04-05T11:24:06;99636.41;;;8.63;100.00
10310;BME280;5200;43.236;27.986;2023-04-05T11:26:52;99639.56;;;8.67;100.00
10310;BME280;5200;43.236;27.986;2023-04-05T11:29:47;99639.44;;;8.68;100.00
10310;BME280;5200;43.236;27.986;2023-04-05T11:32:16;99637.25;;;8.83;100.00
10310;BME280;5200;43.236;27.986;2023-04-05T11:34:44;99642.09;;;8.88;100.00
10310;BME280;5200;43.236;27.986;2023-04-05T11:37:11;99633.81;;;9.12;100.00
10310;BME280;5200;43.236;27.986;2023-04-05T11:39:40;99643.50;;;9.21;100.00
10310;BME280;5200;43.236;27.986;2023-04-05T11:42:10;99649.03;;;9.38;100.00
10310;BME280;5200;43.236;27.986;2023-04-05T11:44:43;99650.69;;;9.58;100.00
10310;BME280;5200;43.236;27.986;2023-04-05T11:47:11;99654.53;;;9.73;100.00
10310;BME280;5200;43.236;27.986;2023-04-05T11:49:39;99649.56;;;9.70;100.00
10310;BME280;5200;43.236;27.986;2023-04-05T11:52:11;99653.00;;;9.71;100.00
10310;BME280;5200;43.236;27.986;2023-04-05T11:54:38;99646.53;;;9.65;100.00
10310;BME280;5200;43.236;27.986;2023-04-05T11:57:11;99641.28;;;9.65;100.00
10310;BME280;5200;43.236;27.986;2023-04-05T11:59:38;99653.16;;;9.50;100.00
10310;BME280;5200;43.236;27.986;2023-04-05T12:02:05;99633.84;;;9.31;100.00
10310;BME280;5200;43.236;27.986;2023-04-05T12:04:33;99639.94;;;9.13;100.00
10310;BME280;5200;43.236;27.986;2023-04-05T12:07:15;99637.97;;;8.95;100.00
10310;BME280;5200;43.236;27.986;2023-04-05T12:10:03;99639.59;;;8.77;100.00
10310;BME280;5200;43.236;27.986;2023-04-05T12:12:36;99642.59;;;8.62;100.00
10310;BME280;5200;43.236;27.986;2023-04-05T12:15:04;99644.88;;;8.46;100.00
10310;BME280;5200;43.236;27.986;2023-04-05T12:17:40;99654.38;;;8.37;100.00
10310;BME280;5200;43.236;27.986;2023-04-05T12:20:09;99653.03;;;8.22;100.00
10310;BME280;5200;43.236;27.986;2023-04-05T12:22:38;99634.81;;;7.90;100.00
10310;BME280;5200;43.236;27.986;2023-04-05T12:25:07;99659.66;;;7.95;100.00
10310;BME280;5200;43.236;27.986;2023-04-05T12:27:34;99654.94;;;7.89;100.00
10310;BME280;5200;43.236;27.986;2023-04-05T12:30:06;99657.81;;;7.86;100.00
10310;BME280;5200;43.236;27.986;2023-04-05T12:32:35;99647.50;;;7.94;100.00
10310;BME280;5200;43.236;27.986;2023-04-05T12:35:05;99634.63;;;8.02;100.00
10310;BME280;5200;43.236;27.986;2023-04-05T12:37:33;99617.41;;;8.40;100.00
10310;BME280;5200;43.236;27.986;2023-04-05T12:40:03;99635.69;;;8.61;100.00
10310;BME280;5200;43.236;27.986;2023-04-05T12:42:32;99642.84;;;8.50;100.00
10310;BME280;5200;43.236;27.986;2023-04-05T12:45:04;99632.88;;;8.43;100.00
10310;BME280;5200;43.236;27.986;2023-04-05T12:47:33;99642.28;;;8.56;100.00
10310;BME280;5200;43.236;27.986;2023-04-05T12:50:10;99609.97;;;8.45;100.00
10310;BME280;5200;43.236;27.986;2023-04-05T12:52:37;99637.91;;;8.66;100.00
10310;BME280;5200;43.236;27.986;2023-04-05T12:55:13;99642.88;;;8.69;100.00
10310;BME280;5200;43.236;27.986;2023-04-05T12:57:41;99619.31;;;8.38;100.00
10310;BME280;5200;43.236;27.986;2023-04-05T13:00:08;99609.28;;;8.13;100.00
10310;BME280;5200;43.236;27.986;2023-04-05T13:02:36;99639.38;;;8.18;100.00
10310;BME280;5200;43.236;27.986;2023-04-05T13:05:03;99633.28;;;8.18;100.00
10310;BME280;5200;43.236;27.986;2023-04-05T13:07:30;99640.44;;;8.16;100.00
10310;BME280;5200;43.236;27.986;2023-04-05T13:09:56;99636.31;;;8.13;100.00